Aviation Digital Data Service (ADDS)

Output produced by METARs form (1651 UTC 21 January 2018)
found at http://aviationweather.gov/adds/metars/
 
KMBS 211627Z 2116/2212 18005KT 2SM BR OVC006 
     FM212300 09005KT 4SM BR BKN008 OVC015 
     FM220400 06007KT 2SM -RA BR OVC006